Time;durP1;ratioP1;P1;durP2;ratioP2;P2;SDS_P1;SDS_P2;PMS_P1;PMS_P2;Temp;Humidity;BMP_temperature;BMP_pressure;BME280_temperature;BME280_humidity;BME280_pressure;Samples;Min_cycle;Max_cycle;Signal;HPM_P1;HPM_P2
2022/01/25 00:26:29;;;;;;;74.70;48.65;;;;;;;-0.15;100.00;102318.78;5055754;28;20051;-62
2022/01/25 00:29:08;;;;;;;71.78;50.95;;;;;;;-0.08;100.00;102323.25;5062701;28;20202;-62
2022/01/25 00:31:37;;;;;;;79.13;55.08;;;;;;;0.01;100.00;102312.25;5063391;28;20766;-62
2022/01/25 00:34:02;;;;;;;70.13;49.97;;;;;;;0.09;100.00;102305.56;5057219;28;20036;-62
2022/01/25 00:36:29;;;;;;;76.90;51.00;;;;;;;0.15;100.00;102315.16;5059282;28;20032;-62
2022/01/25 00:38:55;;;;;;;77.25;51.53;;;;;;;0.20;100.00;102318.75;5063293;28;20789;-62
2022/01/25 00:41:21;;;;;;;77.32;50.55;;;;;;;0.27;100.00;102310.28;5070361;28;20036;-62
2022/01/25 00:43:47;;;;;;;70.22;51.03;;;;;;;0.32;100.00;102308.66;5059977;28;20032;-62
2022/01/25 00:46:14;;;;;;;79.38;50.97;;;;;;;0.04;100.00;102259.78;5056542;28;20047;-61
2022/01/25 00:48:44;;;;;;;78.97;52.13;;;;;;;0.48;100.00;102321.97;5057484;28;20639;-62
2022/01/25 00:56:21;;;;;;;89.53;52.25;;;;;;;0.60;100.00;102326.53;5068502;28;20037;-62
2022/01/25 00:58:47;;;;;;;75.47;51.63;;;;;;;0.63;100.00;102310.22;5065683;28;20039;-62
2022/01/25 01:01:12;;;;;;;73.85;51.03;;;;;;;0.54;100.00;102284.16;5057512;28;20028;-62
2022/01/25 01:03:38;;;;;;;75.75;52.00;;;;;;;0.38;100.00;102260.56;5060242;28;20841;-61
2022/01/25 01:06:05;;;;;;;80.68;50.42;;;;;;;0.60;100.00;102292.91;5071588;28;20025;-61
2022/01/25 01:08:31;;;;;;;73.65;49.20;;;;;;;0.64;100.00;102299.91;5069165;28;20078;-62
2022/01/25 01:10:58;;;;;;;75.80;53.90;;;;;;;0.76;100.00;102307.91;5065942;28;20032;-62
2022/01/25 01:30:00;;;;;;;81.45;54.10;;;;;;;0.93;100.00;102316.88;5051055;28;20121;-62
2022/01/25 01:33:03;;;;;;;82.45;54.20;;;;;;;0.94;100.00;102316.06;5060284;28;20143;-62
2022/01/25 01:43:29;;;;;;;84.20;54.00;;;;;;;1.00;100.00;102334.28;5053889;28;20561;-62
2022/01/25 01:48:29;;;;;;;80.75;52.90;;;;;;;1.05;100.00;102333.50;5062960;28;20786;-62
2022/01/25 01:50:58;;;;;;;77.40;54.65;;;;;;;1.04;100.00;102335.22;5056607;28;20035;-62
2022/01/25 01:53:23;;;;;;;80.18;53.40;;;;;;;1.07;100.00;102339.56;5057726;28;20119;-62
2022/01/25 01:55:49;;;;;;;80.15;53.67;;;;;;;1.08;100.00;102328.38;5058943;28;20078;-62
2022/01/25 01:58:14;;;;;;;78.90;54.17;;;;;;;1.09;100.00;102323.22;5056885;28;20045;-62
2022/01/25 02:00:43;;;;;;;80.57;52.88;;;;;;;1.09;100.00;102332.69;5055244;28;20029;-62
2022/01/25 02:03:08;;;;;;;71.65;51.22;;;;;;;1.11;100.00;102331.03;5057394;28;20036;-62
2022/01/25 02:05:34;;;;;;;71.47;50.70;;;;;;;1.13;100.00;102329.34;5054322;28;20470;-62
2022/01/25 02:08:00;;;;;;;76.30;53.30;;;;;;;1.14;100.00;102337.13;5054022;28;20145;-62
2022/01/25 02:10:26;;;;;;;76.55;52.35;;;;;;;1.15;100.00;102338.88;5057880;28;20483;-62
2022/01/25 02:12:52;;;;;;;82.18;52.95;;;;;;;1.16;100.00;102339.75;5056411;28;20028;-62
2022/01/25 02:15:19;;;;;;;75.30;51.72;;;;;;;1.16;100.00;102339.75;5063683;28;20021;-61
2022/01/25 02:22:55;;;;;;;;;;;;;;;1.19;100.00;102324.25;5062882;28;20449;-61
2022/01/25 02:25:21;;;;;;;67.85;46.90;;;;;;;1.21;100.00;102332.94;5061207;28;19913;-61
2022/01/25 02:27:46;;;;;;;77.97;52.28;;;;;;;1.22;100.00;102332.09;5058272;28;20066;-61
2022/01/25 02:30:12;;;;;;;69.18;48.58;;;;;;;1.20;100.00;102332.06;5054006;28;20052;-61
2022/01/25 02:32:38;;;;;;;76.28;50.45;;;;;;;1.20;100.00;102321.72;5053608;28;20036;-61
2022/01/25 02:35:05;;;;;;;65.50;47.55;;;;;;;1.22;100.00;102329.50;5061442;28;20101;-61
2022/01/25 02:37:31;;;;;;;71.55;51.47;;;;;;;1.21;100.00;102332.94;5056078;28;20558;-61
2022/01/25 02:39:57;;;;;;;80.40;50.65;;;;;;;1.15;100.00;102317.31;5058582;28;20078;-61
2022/01/25 02:42:23;;;;;;;65.60;48.60;;;;;;;1.05;100.00;102300.72;5061767;28;20032;-61
2022/01/25 02:44:49;;;;;;;62.75;46.45;;;;;;;1.14;100.00;102307.78;5060563;28;20043;-61
2022/01/25 02:49:59;;;;;;;75.70;47.47;;;;;;;0.92;100.00;102257.31;5054868;28;20786;-61
2022/01/25 02:52:25;;;;;;;63.88;45.67;;;;;;;1.24;100.00;102308.00;5064377;28;20033;-61
2022/01/25 02:54:50;;;;;;;70.32;47.25;;;;;;;0.74;100.00;102231.13;5049647;28;20036;-61
2022/01/25 02:57:16;;;;;;;65.72;47.85;;;;;;;1.27;100.00;102313.22;5062748;28;20033;-61
2022/01/25 02:59:41;;;;;;;65.50;45.13;;;;;;;1.25;100.00;102314.91;5059688;28;20081;-60
2022/01/25 03:02:07;;;;;;;70.97;45.45;;;;;;;1.25;100.00;102311.47;5056519;28;20033;-60
2022/01/25 03:04:32;;;;;;;73.55;48.22;;;;;;;1.13;100.00;102288.78;5061862;28;20044;-60
2022/01/25 03:06:58;;;;;;;65.28;46.85;;;;;;;1.26;100.00;102306.28;5081823;28;20033;-60
2022/01/25 03:09:23;;;;;;;60.15;45.30;;;;;;;1.26;100.00;102306.28;5065723;28;20044;-61
2022/01/25 03:11:52;;;;;;;72.18;48.40;;;;;;;1.29;100.00;102318.41;5056571;28;20375;-60
2022/01/25 03:14:20;;;;;;;66.10;48.55;;;;;;;1.28;100.00;102309.81;5053551;28;20041;-61
2022/01/25 03:17:08;;;;;;;64.20;45.90;;;;;;;1.28;100.00;102304.63;5062534;28;20037;-61
2022/01/25 03:22:12;;;;;;;72.03;47.00;;;;;;;1.31;100.00;102314.16;5061604;28;20080;-61
2022/01/25 03:24:38;;;;;;;63.33;44.38;;;;;;;1.30;100.00;102310.69;5065647;28;20033;-60
2022/01/25 03:27:03;;;;;;;67.65;46.17;;;;;;;1.30;100.00;102304.63;5060075;28;20031;-61
2022/01/25 03:29:29;;;;;;;63.15;47.20;;;;;;;1.30;100.00;102302.03;5062811;28;20128;-60
2022/01/25 03:31:54;;;;;;;64.43;45.42;;;;;;;1.33;100.00;102296.91;5065898;28;20127;-60
2022/01/25 03:34:20;;;;;;;65.70;47.17;;;;;;;1.34;100.00;102290.91;5064191;28;20032;-61
2022/01/25 03:36:45;;;;;;;64.95;46.17;;;;;;;1.37;100.00;102293.53;5060604;28;20574;-61
2022/01/25 03:39:10;;;;;;;68.63;48.20;;;;;;;1.39;100.00;102297.03;5064704;28;20029;-61
2022/01/25 03:41:36;;;;;;;60.70;44.10;;;;;;;1.34;100.00;102284.00;5071446;28;20035;-61
2022/01/25 03:44:02;;;;;;;63.22;45.10;;;;;;;1.37;100.00;102289.25;5063919;28;20106;-61
2022/01/25 03:46:36;;;;;;;66.00;45.45;;;;;;;1.38;100.00;102287.53;5065697;28;20732;-61
2022/01/25 03:51:47;;;;;;;63.55;43.42;;;;;;;1.37;100.00;102273.72;5078054;28;20047;-61
2022/01/25 03:54:13;;;;;;;66.88;46.08;;;;;;;1.39;100.00;102274.59;5063410;28;20020;-61
2022/01/25 03:56:39;;;;;;;57.35;42.25;;;;;;;1.37;100.00;102268.53;5058541;28;20040;-61
2022/01/25 03:59:05;;;;;;;64.53;44.58;;;;;;;1.39;100.00;102269.41;5064053;28;20028;-61
2022/01/25 04:01:32;;;;;;;67.63;43.55;;;;;;;1.40;100.00;102272.88;5064803;28;20123;-61
2022/01/25 04:04:01;;;;;;;58.65;43.15;;;;;;;1.40;100.00;102278.06;5070388;28;20482;-61
2022/01/25 04:06:30;;;;;;;67.00;44.25;;;;;;;1.41;100.00;102274.63;5054824;28;20043;-61
2022/01/25 04:08:56;;;;;;;62.63;41.25;;;;;;;1.39;100.00;102266.81;5066213;28;20036;-60
2022/01/25 04:11:22;;;;;;;65.07;42.97;;;;;;;1.41;100.00;102278.09;5066062;28;20036;-62
2022/01/25 04:13:51;;;;;;;66.80;44.75;;;;;;;1.40;100.00;102278.94;5054182;28;20039;-60
2022/01/25 04:16:21;;;;;;;61.85;44.33;;;;;;;1.43;100.00;102276.41;5062572;28;20086;-62
2022/01/25 04:18:58;;;;;;;70.97;44.85;;;;;;;1.44;100.00;102274.69;5057079;28;20471;-62
2022/01/25 04:21:43;;;;;;;64.32;44.38;;;;;;;1.37;100.00;102265.94;5062457;28;20032;-63
2022/01/25 04:26:55;;;;;;;60.40;43.40;;;;;;;0.93;100.00;102176.28;5061536;28;20108;-62
2022/01/25 04:29:21;;;;;;;59.50;43.58;;;;;;;1.47;100.00;102262.66;5079462;28;20036;-62
2022/01/25 04:31:47;;;;;;;63.60;42.75;;;;;;;1.48;100.00;102276.50;5069540;28;20385;-62
2022/01/25 04:50:13;;;;;;;61.33;39.90;;;;;;;1.45;100.00;102266.06;5049289;28;20043;-62
2022/01/25 04:52:51;;;;;;;60.30;41.03;;;;;;;1.45;100.00;102260.91;5067834;28;20546;-61
2022/01/25 04:55:27;;;;;;;58.40;40.33;;;;;;;1.45;100.00;102266.06;5064347;28;20032;-62
2022/01/25 04:58:00;;;;;;;58.75;41.58;;;;;;;1.45;100.00;102266.06;5062050;28;20797;-62
2022/01/25 05:00:26;;;;;;;58.90;41.55;;;;;;;1.21;100.00;102224.22;5066707;28;20097;-62
2022/01/25 05:02:56;;;;;;;58.25;40.42;;;;;;;1.41;100.00;102253.91;5063378;28;20872;-62
2022/01/25 05:06:02;;;;;;;65.50;40.33;;;;;;;1.41;100.00;102259.09;5064347;28;20028;-61
2022/01/25 05:08:32;;;;;;;61.30;41.38;;;;;;;1.42;100.00;102260.84;5052409;28;20036;-62
2022/01/25 05:16:15;;;;;;;57.72;39.72;;;;;;;1.40;100.00;102262.53;5057521;28;19959;-62
2022/01/25 05:18:44;;;;;;;66.78;41.60;;;;;;;1.40;100.00;102268.56;5056127;28;20035;-62
2022/01/25 05:23:55;;;;;;;59.30;40.97;;;;;;;1.36;100.00;102277.13;5061292;28;20055;-61
2022/01/25 05:26:21;;;;;;;65.50;43.03;;;;;;;1.35;100.00;102284.91;5070399;28;20032;-61
2022/01/25 05:28:46;;;;;;;67.60;42.85;;;;;;;1.36;100.00;102278.84;5081524;28;20646;-61
2022/01/25 05:31:12;;;;;;;71.25;42.35;;;;;;;1.29;100.00;102264.03;5058115;28;20032;-61
2022/01/25 05:33:37;;;;;;;61.60;41.00;;;;;;;1.25;100.00;102251.91;5058457;28;20553;-61
2022/01/25 05:36:03;;;;;;;62.78;42.10;;;;;;;1.36;100.00;102265.91;5067971;28;20126;-62
2022/01/25 05:38:28;;;;;;;66.40;41.33;;;;;;;1.35;100.00;102266.78;5066058;28;20348;-61
2022/01/25 05:41:01;;;;;;;61.17;40.08;;;;;;;1.35;100.00;102259.84;5059256;28;20588;-62
2022/01/25 05:46:15;;;;;;;58.60;40.20;;;;;;;1.35;100.00;102259.84;5062618;28;20178;-61
2022/01/25 05:48:41;;;;;;;57.63;39.53;;;;;;;1.20;100.00;102232.81;5062465;28;20024;-62
2022/01/25 05:51:07;;;;;;;63.63;40.58;;;;;;;1.35;100.00;102254.66;5061453;28;20067;-62
2022/01/25 05:53:32;;;;;;;71.35;42.75;;;;;;;1.34;100.00;102260.72;5061120;28;20032;-61
2022/01/25 05:55:58;;;;;;;58.42;41.47;;;;;;;1.29;100.00;102243.34;5053675;28;20043;-62
2022/01/25 05:58:24;;;;;;;57.53;39.40;;;;;;;1.35;100.00;102248.66;5056778;28;20390;-62
2022/01/25 06:00:49;;;;;;;60.67;37.95;;;;;;;1.34;100.00;102247.78;5064765;28;20021;-62
2022/01/25 06:03:15;;;;;;;66.30;38.55;;;;;;;1.30;100.00;102251.13;5082908;28;20103;-62
2022/01/25 06:05:41;;;;;;;66.78;40.70;;;;;;;1.24;100.00;102243.28;5052226;28;20446;-61
2022/01/25 06:08:07;;;;;;;67.47;38.95;;;;;;;1.30;100.00;102260.63;5055005;28;20036;-61
2022/01/25 06:10:32;;;;;;;65.07;40.70;;;;;;;1.29;100.00;102259.75;5065426;28;20055;-61
2022/01/25 06:12:58;;;;;;;61.65;39.17;;;;;;;1.18;100.00;102240.59;5063947;28;20032;-61
2022/01/25 06:15:23;;;;;;;60.72;38.55;;;;;;;1.17;100.00;102237.97;5056455;28;20115;-61
2022/01/25 06:17:49;;;;;;;56.08;38.15;;;;;;;1.31;100.00;102264.97;5060285;28;20036;-61
2022/01/25 06:20:15;;;;;;;57.38;39.22;;;;;;;1.31;100.00;102263.25;5075463;28;20918;-62
2022/01/25 06:22:41;;;;;;;61.60;38.65;;;;;;;1.32;100.00;102267.56;5061925;28;20028;-62
2022/01/25 06:25:07;;;;;;;67.22;41.92;;;;;;;1.21;100.00;102245.81;5062883;28;20038;-62
2022/01/25 06:27:33;;;;;;;61.60;39.97;;;;;;;0.90;100.00;102196.94;5057843;28;20033;-62
2022/01/25 06:29:58;;;;;;;70.40;41.28;;;;;;;1.32;100.00;102267.56;5059632;28;20112;-62
2022/01/25 06:32:24;;;;;;;65.65;39.67;;;;;;;1.31;100.00;102268.44;5062115;28;20037;-62
2022/01/25 06:34:49;;;;;;;69.60;41.28;;;;;;;1.31;100.00;102265.84;5053921;28;20032;-62
2022/01/25 06:37:15;;;;;;;63.30;40.72;;;;;;;1.34;100.00;102257.25;5074329;28;20719;-62
2022/01/25 06:39:41;;;;;;;62.15;40.63;;;;;;;1.33;100.00;102255.50;5061748;28;20108;-62
2022/01/25 06:42:07;;;;;;;59.65;39.03;;;;;;;1.34;100.00;102262.44;5059285;28;20097;-62
2022/01/25 06:44:35;;;;;;;61.42;38.90;;;;;;;1.34;100.00;102263.31;5078019;28;20143;-62
2022/01/25 06:47:00;;;;;;;56.67;38.50;;;;;;;1.30;100.00;102250.25;5066665;28;20438;-62
2022/01/25 06:49:26;;;;;;;69.28;42.05;;;;;;;0.92;100.00;102190.94;5064025;28;20139;-62
2022/01/25 06:51:51;;;;;;;69.15;41.70;;;;;;;1.35;100.00;102270.19;5061102;28;20433;-61
2022/01/25 06:54:17;;;;;;;63.67;41.15;;;;;;;1.35;100.00;102259.84;5070098;28;20029;-61
2022/01/25 06:56:42;;;;;;;61.90;40.78;;;;;;;1.35;100.00;102261.59;5066289;28;20028;-62
2022/01/25 06:59:08;;;;;;;75.10;44.80;;;;;;;1.35;100.00;102266.78;5066324;28;20036;-61
2022/01/25 07:01:33;;;;;;;64.53;43.72;;;;;;;1.34;100.00;102267.59;5065346;28;20028;-62
2022/01/25 07:03:59;;;;;;;64.72;40.03;;;;;;;1.36;100.00;102268.50;5066091;28;20024;-61
2022/01/25 07:06:24;;;;;;;73.25;43.95;;;;;;;1.37;100.00;102272.84;5071305;28;20178;-61
2022/01/25 07:08:50;;;;;;;70.63;41.83;;;;;;;1.37;100.00;102278.00;5069656;28;20036;-61
2022/01/25 07:11:15;;;;;;;66.65;41.90;;;;;;;1.40;100.00;102275.47;5065193;28;20036;-61
2022/01/25 07:13:40;;;;;;;65.90;41.67;;;;;;;1.29;100.00;102258.88;5060293;28;20475;-61
2022/01/25 07:16:06;;;;;;;70.93;41.75;;;;;;;1.26;100.00;102248.47;5063400;28;20848;-62
2022/01/25 07:18:32;;;;;;;72.50;42.78;;;;;;;1.38;100.00;102274.59;5065170;28;20527;-61
2022/01/25 07:20:57;;;;;;;70.68;42.83;;;;;;;1.40;100.00;102272.88;5063124;28;20033;-62
2022/01/25 07:23:23;;;;;;;68.45;43.40;;;;;;;1.39;100.00;102268.53;5065585;28;20119;-61
2022/01/25 07:25:48;;;;;;;71.22;43.65;;;;;;;1.41;100.00;102272.03;5064565;28;20462;-62
2022/01/25 07:28:14;;;;;;;65.50;42.40;;;;;;;1.42;100.00;102266.03;5063123;28;20062;-62
2022/01/25 07:30:39;;;;;;;60.70;42.28;;;;;;;1.34;100.00;102257.25;5063198;28;20032;-62
2022/01/25 07:33:05;;;;;;;68.32;43.28;;;;;;;1.41;100.00;102270.34;5063707;28;20453;-62
2022/01/25 07:35:33;;;;;;;71.55;44.47;;;;;;;1.42;100.00;102279.81;5066919;28;20036;-61
2022/01/25 07:37:58;;;;;;;73.30;42.22;;;;;;;1.29;100.00;102248.50;5077204;28;20124;-61
2022/01/25 07:40:24;;;;;;;74.45;45.58;;;;;;;1.44;100.00;102274.69;5063252;28;20206;-62
2022/01/25 07:42:49;;;;;;;72.60;46.58;;;;;;;1.45;100.00;102266.06;5063585;28;20135;-62
2022/01/25 07:45:15;;;;;;;76.40;46.55;;;;;;;1.49;100.00;102265.25;5065405;28;20111;-62
2022/01/25 07:47:40;;;;;;;69.50;43.30;;;;;;;1.50;100.00;102269.59;5064207;28;20035;-61
2022/01/25 07:50:07;;;;;;;74.38;47.08;;;;;;;1.51;100.00;102271.34;5062809;28;20032;-62
2022/01/25 07:52:33;;;;;;;76.15;46.15;;;;;;;1.52;100.00;102273.09;5065323;28;20040;-61
2022/01/25 07:54:58;;;;;;;76.15;47.17;;;;;;;1.52;100.00;102267.94;5065391;28;20040;-62
2022/01/25 07:57:24;;;;;;;74.70;43.35;;;;;;;1.54;100.00;102268.81;5064160;28;20036;-62
2022/01/25 07:59:50;;;;;;;71.32;44.72;;;;;;;1.58;100.00;102277.50;5067996;28;20032;-62
2022/01/25 08:02:17;;;;;;;74.85;44.53;;;;;;;1.58;100.00;102273.22;5069716;28;20040;-62
2022/01/25 08:04:42;;;;;;;72.15;44.15;;;;;;;1.60;100.00;102276.69;5067802;28;20386;-62
2022/01/25 08:07:08;;;;;;;87.50;44.78;;;;;;;1.55;100.00;102267.97;5067657;28;20045;-62
2022/01/25 08:09:33;;;;;;;70.45;42.78;;;;;;;1.60;100.00;102281.88;5068357;28;20033;-62
2022/01/25 08:11:59;;;;;;;76.70;46.47;;;;;;;1.66;100.00;102287.13;5068942;28;20025;-61
2022/01/25 08:14:24;;;;;;;79.00;46.67;;;;;;;1.68;100.00;102287.19;5068760;28;20128;-62
2022/01/25 08:16:51;;;;;;;84.10;48.75;;;;;;;1.70;100.00;102278.56;5065476;28;20037;-62
2022/01/25 08:19:18;;;;;;;77.32;47.42;;;;;;;1.71;100.00;102282.91;5066092;28;20218;-62
2022/01/25 08:21:43;;;;;;;74.45;45.80;;;;;;;1.47;100.00;102244.53;5067515;28;20074;-62
2022/01/25 08:24:11;;;;;;;81.43;44.95;;;;;;;1.74;100.00;102284.69;5068058;28;20076;-63
2022/01/25 08:26:37;;;;;;;64.85;43.58;;;;;;;1.78;100.00;102284.75;5068167;28;20032;-62
2022/01/25 08:29:04;;;;;;;69.78;44.90;;;;;;;1.84;100.00;102281.38;5067332;28;20479;-62
2022/01/25 08:31:29;;;;;;;82.90;47.55;;;;;;;1.85;100.00;102284.00;5069715;28;20036;-62
2022/01/25 08:33:55;;;;;;;74.40;44.60;;;;;;;1.86;100.00;102284.91;5070778;28;20035;-62
2022/01/25 08:36:20;;;;;;;73.22;46.30;;;;;;;1.83;100.00;102293.47;5071157;28;20043;-62
2022/01/25 08:38:46;;;;;;;70.00;41.42;;;;;;;1.88;100.00;102299.59;5071170;28;20402;-62
2022/01/25 08:41:12;;;;;;;76.80;47.28;;;;;;;1.94;100.00;102289.34;5070089;28;20031;-62
2022/01/25 08:43:37;;;;;;;75.25;45.42;;;;;;;1.95;100.00;102291.09;5071293;28;20032;-62
2022/01/25 08:46:03;;;;;;;75.28;45.45;;;;;;;1.95;100.00;102303.16;5071895;28;20518;-62
2022/01/25 08:48:28;;;;;;;95.53;46.85;;;;;;;1.95;100.00;102300.56;5071407;28;20040;-62
2022/01/25 08:50:54;;;;;;;67.30;44.00;;;;;;;1.97;100.00;102298.88;5071884;28;20027;-62
2022/01/25 08:53:20;;;;;;;85.28;46.58;;;;;;;1.98;100.00;102296.31;5071610;28;20054;-62
2022/01/25 08:55:45;;;;;;;75.43;44.15;;;;;;;2.01;100.00;102290.28;5071413;28;20033;-62
2022/01/25 08:58:11;;;;;;;76.28;46.05;;;;;;;2.07;100.00;102305.94;5071415;28;20372;-62
2022/01/25 09:00:36;;;;;;;79.88;45.60;;;;;;;2.09;100.00;102303.38;5072074;28;20037;-62
2022/01/25 09:03:02;;;;;;;80.38;45.83;;;;;;;2.08;100.00;102296.44;5071404;28;20150;-62
2022/01/25 09:05:28;;;;;;;75.28;45.15;;;;;;;2.09;100.00;102304.25;5070590;28;20032;-62
2022/01/25 09:07:54;;;;;;;74.57;45.85;;;;;;;2.14;100.00;102299.13;5070902;28;20035;-62
2022/01/25 09:10:19;;;;;;;75.63;45.88;;;;;;;2.15;100.00;102298.28;5071640;28;20032;-62
2022/01/25 09:12:45;;;;;;;73.60;45.72;;;;;;;2.18;100.00;102300.91;5071116;28;20418;-62
2022/01/25 09:15:11;;;;;;;77.55;46.80;;;;;;;2.25;100.00;102305.34;5071464;28;20035;-62
2022/01/25 09:17:36;;;;;;;77.13;45.53;;;;;;;2.25;100.00;102294.97;5070482;28;20025;-62
2022/01/25 09:20:04;;;;;;;78.57;44.97;;;;;;;2.36;100.00;102298.59;5070436;28;20112;-62
2022/01/25 09:22:29;;;;;;;80.38;46.13;;;;;;;2.41;100.00;102297.78;5070017;28;20062;-62
2022/01/25 09:24:54;;;;;;;83.65;45.72;;;;;;;2.42;100.00;102299.53;5070802;28;20062;-62
2022/01/25 09:27:20;;;;;;;77.68;44.67;;;;;;;2.44;100.00;102307.34;5069354;28;20028;-62
2022/01/25 09:29:45;;;;;;;80.38;44.15;;;;;;;2.47;100.00;102308.25;5068511;28;20501;-62
2022/01/25 09:32:11;;;;;;;80.75;42.97;;;;;;;2.15;100.00;102239.53;5068078;28;20086;-62
2022/01/25 09:34:36;;;;;;;69.68;44.80;;;;;;;2.53;100.00;102302.28;5068141;28;20085;-62
2022/01/25 09:37:02;;;;;;;82.97;44.55;;;;;;;2.55;100.00;102300.56;5067910;28;20073;-62
2022/01/25 09:39:28;;;;;;;80.18;43.95;;;;;;;2.09;100.00;102216.13;5068973;28;20032;-62
2022/01/25 09:41:53;;;;;;;79.22;44.33;;;;;;;2.64;100.00;102310.22;5068292;28;20039;-62
2022/01/25 09:44:19;;;;;;;70.03;43.08;;;;;;;2.34;100.00;102263.97;5071705;28;20043;-62
2022/01/25 09:46:44;;;;;;;71.93;44.80;;;;;;;2.69;100.00;102318.91;5088783;28;20074;-62
2022/01/25 09:49:11;;;;;;;66.45;41.78;;;;;;;2.71;100.00;102323.28;5084886;28;20119;-62
2022/01/25 09:51:39;;;;;;;67.88;42.00;;;;;;;2.75;100.00;102329.38;5067548;28;20033;-62
2022/01/25 09:54:04;;;;;;;71.88;42.72;;;;;;;2.76;100.00;102325.94;5067660;28;20036;-62
2022/01/25 09:56:33;;;;;;;72.03;43.72;;;;;;;2.75;100.00;102332.84;5067555;28;20037;-62
2022/01/25 09:58:58;;;;;;;64.75;42.85;;;;;;;2.30;100.00;102254.44;5068912;28;20041;-62
2022/01/25 10:01:27;;;;;;;67.43;43.50;;;;;;;2.76;100.00;102344.97;5054900;28;20036;-62
2022/01/25 10:03:52;;;;;;;62.28;40.65;;;;;;;2.71;100.00;102328.47;5033351;28;20078;-62
2022/01/25 10:06:20;;;;;;;75.80;41.58;;;;;;;2.84;100.00;102337.31;5053231;28;20506;-63
2022/01/25 10:08:50;;;;;;;59.67;41.67;;;;;;;2.83;100.00;102333.81;5087550;28;20028;-62
2022/01/25 10:11:16;;;;;;;67.05;42.28;;;;;;;2.36;100.00;102262.28;5066137;28;20494;-62
2022/01/25 10:13:46;;;;;;;70.18;42.88;;;;;;;2.87;100.00;102340.78;5070073;28;20028;-62
2022/01/25 10:16:21;;;;;;;64.03;41.55;;;;;;;2.88;100.00;102337.34;5071332;28;20025;-62
2022/01/25 10:18:52;;;;;;;72.40;41.50;;;;;;;2.90;100.00;102340.84;5074121;28;20048;-62
2022/01/25 10:21:29;;;;;;;76.47;40.92;;;;;;;2.98;100.00;102339.19;5076985;28;20382;-62
2022/01/25 10:24:16;;;;;;;61.80;39.72;;;;;;;3.04;100.00;102333.22;5089748;28;20035;-61
2022/01/25 10:26:46;;;;;;;69.43;41.13;;;;;;;3.10;100.00;102338.47;5091758;28;20035;-63
2022/01/25 10:29:21;;;;;;;69.18;40.88;;;;;;;3.13;100.00;102337.63;5089278;28;20031;-63
2022/01/25 10:31:53;;;;;;;67.05;42.95;;;;;;;3.16;100.00;102335.06;5091547;28;20039;-62
2022/01/25 10:34:24;;;;;;;86.60;41.83;;;;;;;3.21;100.00;102328.22;5089866;28;20043;-64
2022/01/25 10:36:50;;;;;;;62.55;39.55;;;;;;;3.29;100.00;102336.94;5089206;28;20043;-62
2022/01/25 10:39:28;;;;;;;69.45;40.78;;;;;;;3.31;100.00;102338.69;5070119;28;20085;-61
2022/01/25 10:42:09;;;;;;;73.85;39.92;;;;;;;3.35;100.00;102335.28;5042148;28;20032;-61
2022/01/25 10:45:02;;;;;;;59.30;37.78;;;;;;;3.37;100.00;102336.19;5027507;28;20809;-62
2022/01/25 10:47:41;;;;;;;62.35;38.70;;;;;;;3.38;100.00;102337.91;5026759;28;20035;-61
2022/01/25 10:50:26;;;;;;;65.25;39.28;;;;;;;3.36;100.00;102336.16;5028113;28;20978;-61
2022/01/25 10:53:08;;;;;;;59.95;37.92;;;;;;;3.32;100.00;102335.25;5036943;28;20067;-59
2022/01/25 10:55:49;;;;;;;60.88;39.83;;;;;;;3.08;100.00;102294.31;5047128;28;20032;-60
2022/01/25 10:58:15;;;;;;;72.00;41.50;;;;;;;3.27;100.00;102331.75;5047080;28;20082;-61
2022/01/25 11:00:43;;;;;;;56.63;39.50;;;;;;;3.27;100.00;102326.56;5047256;28;20027;-62
2022/01/25 11:03:09;;;;;;;68.15;40.22;;;;;;;3.29;100.00;102330.03;5038157;28;20217;-61
2022/01/25 11:05:38;;;;;;;61.85;35.08;;;;;;;3.32;100.00;102329.19;5047407;28;20560;-61
2022/01/25 11:08:20;;;;;;;55.85;33.85;;;;;;;3.32;100.00;102321.38;5045469;28;20046;-61
2022/01/25 11:10:54;;;;;;;52.72;33.63;;;;;;;3.32;100.00;102323.97;5036150;28;20062;-61
2022/01/25 11:15:55;;;;;;;57.65;36.90;;;;;;;3.35;100.00;102324.00;5024452;28;20888;-62
2022/01/25 11:18:21;;;;;;;52.88;35.47;;;;;;;3.39;100.00;102323.19;5025694;28;20024;-62
2022/01/25 11:20:47;;;;;;;50.10;32.97;;;;;;;3.42;100.00;102325.81;5026713;28;20947;-62
2022/01/25 11:23:12;;;;;;;48.88;33.92;;;;;;;3.43;100.00;102320.66;5023650;28;20906;-62
2022/01/25 11:25:40;;;;;;;52.67;33.40;;;;;;;3.46;100.00;102325.00;5026397;28;20028;-62
2022/01/25 11:28:05;;;;;;;57.72;33.17;;;;;;;3.47;100.00;102314.63;5026371;28;20036;-62
2022/01/25 11:30:31;;;;;;;51.58;33.35;;;;;;;3.49;100.00;102312.91;5025250;28;20029;-62
2022/01/25 11:32:56;;;;;;;54.30;33.25;;;;;;;3.51;100.00;102313.81;5024849;28;20024;-62
2022/01/25 11:35:25;;;;;;;49.38;32.10;;;;;;;3.57;100.00;102310.38;5026358;28;20056;-62
2022/01/25 11:37:51;;;;;;;54.47;34.65;;;;;;;3.64;100.00;102309.59;5025175;28;20039;-61
2022/01/25 11:40:39;;;;;;;68.00;36.45;;;;;;;3.70;100.00;102307.03;5026744;28;20845;-62
2022/01/25 11:43:09;;;;;;;52.13;33.30;;;;;;;3.75;100.00;102301.88;5026320;28;20434;-62
2022/01/25 11:45:43;;;;;;;47.17;31.90;;;;;;;3.79;100.00;102301.03;5025887;28;20036;-61
2022/01/25 11:48:09;;;;;;;43.25;30.00;;;;;;;3.36;100.00;102224.44;5026799;28;20453;-61
2022/01/25 11:50:40;;;;;;;47.70;28.23;;;;;;;3.84;100.00;102295.03;5028165;28;20020;-61
2022/01/25 11:53:10;;;;;;;41.58;29.30;;;;;;;3.86;100.00;102293.31;5030536;28;20036;-61
2022/01/25 11:55:39;;;;;;;44.92;31.58;;;;;;;3.87;100.00;102300.25;5030302;28;20059;-61
2022/01/25 11:58:06;;;;;;;44.40;30.58;;;;;;;3.90;100.00;102296.78;5030268;28;20036;-62
2022/01/25 12:00:50;;;;;;;47.83;29.75;;;;;;;3.43;100.00;102215.84;5031397;28;20771;-61
2022/01/25 12:03:22;;;;;;;55.20;34.97;;;;;;;3.90;100.00;102299.41;5045059;28;20026;-61
2022/01/25 12:06:03;;;;;;;63.78;36.53;;;;;;;3.83;100.00;102308.88;5029509;28;20079;-60
2022/01/25 12:08:48;;;;;;;62.70;37.05;;;;;;;3.83;100.00;102301.06;5029794;28;20140;-61
2022/01/25 12:11:35;;;;;;;60.65;39.00;;;;;;;3.84;100.00;102309.75;5029917;28;20078;-61
2022/01/25 12:14:19;;;;;;;69.90;36.55;;;;;;;3.83;100.00;102313.19;5028771;28;20916;-61
2022/01/25 12:17:04;;;;;;;71.72;36.15;;;;;;;3.88;100.00;102317.59;5029486;28;20047;-61
2022/01/25 12:19:34;;;;;;;49.63;32.25;;;;;;;3.85;100.00;102311.50;5027120;28;20032;-62
2022/01/25 12:22:39;;;;;;;52.28;33.35;;;;;;;3.83;100.00;102318.41;5028256;28;20028;-61
2022/01/25 12:25:13;;;;;;;50.67;32.45;;;;;;;3.82;100.00;102312.31;5028047;28;20881;-61
2022/01/25 12:27:52;;;;;;;51.08;31.08;;;;;;;3.86;100.00;102315.81;5028488;28;20040;-62
2022/01/25 12:30:39;;;;;;;51.88;30.70;;;;;;;3.91;100.00;102312.41;5028367;28;20029;-62
2022/01/25 12:33:21;;;;;;;51.13;28.63;;;;;;;3.95;100.00;102309.00;5024264;28;20245;-62
2022/01/25 12:35:47;;;;;;;45.80;29.15;;;;;;;3.95;100.00;102303.78;5030022;28;20097;-62
2022/01/25 12:38:24;;;;;;;45.50;29.38;;;;;;;3.97;100.00;102306.38;5029169;28;20024;-62
2022/01/25 12:40:55;;;;;;;52.72;30.08;;;;;;;3.86;100.00;102293.31;5027452;28;20032;-62
2022/01/25 12:43:34;;;;;;;59.33;32.58;;;;;;;3.90;100.00;102300.28;5029858;28;20028;-62
2022/01/25 12:46:06;;;;;;;50.83;32.75;;;;;;;3.88;100.00;102296.81;5045850;28;20067;-62
2022/01/25 12:48:34;;;;;;;47.97;33.70;;;;;;;3.85;100.00;102290.72;5029166;28;20095;-62
2022/01/25 12:51:04;;;;;;;47.10;32.65;;;;;;;3.85;100.00;102290.72;5028550;28;20024;-62
2022/01/25 12:53:31;;;;;;;51.78;35.25;;;;;;;3.82;100.00;102301.09;5028527;28;20036;-62
2022/01/25 12:56:00;;;;;;;61.33;33.10;;;;;;;3.81;100.00;102294.13;5029696;28;20726;-62
2022/01/25 12:58:28;;;;;;;48.40;33.13;;;;;;;3.81;100.00;102292.41;5028809;28;20031;-62